sensor_id;sensor_type;location;lat;lon;timestamp;temperature;humidity
18876;DHT22;9570;50.854;13.778;2023-02-15T00:00:02;0.50;99.90
18876;DHT22;9570;50.854;13.778;2023-02-15T00:02:28;0.50;99.90
18876;DHT22;9570;50.854;13.778;2023-02-15T00:04:53;0.50;99.90
18876;DHT22;9570;50.854;13.778;2023-02-15T00:07:21;0.50;99.90
18876;DHT22;9570;50.854;13.778;2023-02-15T00:09:47;0.50;99.90
18876;DHT22;9570;50.854;13.778;2023-02-15T00:12:13;0.50;99.90
18876;DHT22;9570;50.854;13.778;2023-02-15T00:14:39;0.50;99.90
18876;DHT22;9570;50.854;13.778;2023-02-15T00:17:04;0.40;99.90
18876;DHT22;9570;50.854;13.778;2023-02-15T00:19:30;0.40;99.90
18876;DHT22;9570;50.854;13.778;2023-02-15T00:21:55;0.40;99.90
18876;DHT22;9570;50.854;13.778;2023-02-15T00:24:21;0.40;99.90
18876;DHT22;9570;50.854;13.778;2023-02-15T00:26:47;0.40;99.90
18876;DHT22;9570;50.854;13.778;2023-02-15T00:29:14;0.40;99.90
18876;DHT22;9570;50.854;13.778;2023-02-15T00:31:40;0.40;99.90
18876;DHT22;9570;50.854;13.778;2023-02-15T00:34:09;0.40;99.90
18876;DHT22;9570;50.854;13.778;2023-02-15T00:36:35;0.40;99.90
18876;DHT22;9570;50.854;13.778;2023-02-15T00:39:01;0.30;99.90
18876;DHT22;9570;50.854;13.778;2023-02-15T00:41:27;0.30;99.90
18876;DHT22;9570;50.854;13.778;2023-02-15T00:43:52;0.30;99.90
18876;DHT22;9570;50.854;13.778;2023-02-15T00:46:18;0.30;99.90
18876;DHT22;9570;50.854;13.778;2023-02-15T00:48:43;0.20;99.90
18876;DHT22;9570;50.854;13.778;2023-02-15T00:51:09;0.20;99.90
18876;DHT22;9570;50.854;13.778;2023-02-15T00:53:34;0.20;99.90
18876;DHT22;9570;50.854;13.778;2023-02-15T00:56:00;0.30;99.90
18876;DHT22;9570;50.854;13.778;2023-02-15T00:58:25;0.30;99.90
18876;DHT22;9570;50.854;13.778;2023-02-15T01:00:51;0.30;99.90
18876;DHT22;9570;50.854;13.778;2023-02-15T01:03:18;0.20;99.90
18876;DHT22;9570;50.854;13.778;2023-02-15T01:05:44;0.20;99.90
18876;DHT22;9570;50.854;13.778;2023-02-15T01:08:09;0.10;99.90
18876;DHT22;9570;50.854;13.778;2023-02-15T01:10:36;0.10;99.90
18876;DHT22;9570;50.854;13.778;2023-02-15T01:13:02;0.10;99.90
18876;DHT22;9570;50.854;13.778;2023-02-15T01:15:27;0.10;99.90
18876;DHT22;9570;50.854;13.778;2023-02-15T01:17:53;0.10;99.90
18876;DHT22;9570;50.854;13.778;2023-02-15T01:20:20;0.20;99.90
18876;DHT22;9570;50.854;13.778;2023-02-15T01:22:46;0.20;99.90
18876;DHT22;9570;50.854;13.778;2023-02-15T01:25:11;0.20;99.90
18876;DHT22;9570;50.854;13.778;2023-02-15T01:27:37;0.20;99.90
18876;DHT22;9570;50.854;13.778;2023-02-15T01:30:02;0.10;99.90
18876;DHT22;9570;50.854;13.778;2023-02-15T01:32:30;0.10;99.90
18876;DHT22;9570;50.854;13.778;2023-02-15T01:34:55;0.10;99.90
18876;DHT22;9570;50.854;13.778;2023-02-15T01:37:21;0.10;99.90
18876;DHT22;9570;50.854;13.778;2023-02-15T01:39:46;0.10;99.90
18876;DHT22;9570;50.854;13.778;2023-02-15T01:42:12;0.10;99.90
18876;DHT22;9570;50.854;13.778;2023-02-15T01:47:24;0.10;99.90
18876;DHT22;9570;50.854;13.778;2023-02-15T01:50:18;0.10;99.90
18876;DHT22;9570;50.854;13.778;2023-02-15T01:53:03;0.10;99.90
18876;DHT22;9570;50.854;13.778;2023-02-15T01:55:37;0.00;99.90
18876;DHT22;9570;50.854;13.778;2023-02-15T01:58:03;0.10;99.90
18876;DHT22;9570;50.854;13.778;2023-02-15T02:00:29;0.00;99.90
18876;DHT22;9570;50.854;13.778;2023-02-15T02:02:56;0.00;99.90
18876;DHT22;9570;50.854;13.778;2023-02-15T02:05:22;0.00;99.90
18876;DHT22;9570;50.854;13.778;2023-02-15T02:07:49;0.00;99.90
18876;DHT22;9570;50.854;13.778;2023-02-15T02:10:17;0.00;99.90
18876;DHT22;9570;50.854;13.778;2023-02-15T02:12:45;0.00;99.90
18876;DHT22;9570;50.854;13.778;2023-02-15T02:15:13;0.00;99.90
18876;DHT22;9570;50.854;13.778;2023-02-15T02:18:22;-0.10;99.90
18876;DHT22;9570;50.854;13.778;2023-02-15T02:23:39;-0.10;99.90
18876;DHT22;9570;50.854;13.778;2023-02-15T02:29:34;-0.10;99.90
18876;DHT22;9570;50.854;13.778;2023-02-15T02:32:14;-0.10;99.90
18876;DHT22;9570;50.854;13.778;2023-02-15T02:34:59;-0.10;99.90
18876;DHT22;9570;50.854;13.778;2023-02-15T02:40:13;-0.10;99.90
18876;DHT22;9570;50.854;13.778;2023-02-15T02:42:43;-0.20;99.90
18876;DHT22;9570;50.854;13.778;2023-02-15T02:45:15;-0.20;99.90
18876;DHT22;9570;50.854;13.778;2023-02-15T02:47:52;-0.20;99.90
18876;DHT22;9570;50.854;13.778;2023-02-15T02:50:25;-0.20;99.90
18876;DHT22;9570;50.854;13.778;2023-02-15T02:52:53;-0.20;99.90
18876;DHT22;9570;50.854;13.778;2023-02-15T02:55:30;-0.20;99.90
18876;DHT22;9570;50.854;13.778;2023-02-15T02:58:04;-0.20;99.90
18876;DHT22;9570;50.854;13.778;2023-02-15T03:00:34;-0.20;99.90
18876;DHT22;9570;50.854;13.778;2023-02-15T03:03:04;-0.20;99.90
18876;DHT22;9570;50.854;13.778;2023-02-15T03:05:32;-0.20;99.90
18876;DHT22;9570;50.854;13.778;2023-02-15T03:07:59;-0.20;99.90
18876;DHT22;9570;50.854;13.778;2023-02-15T03:10:31;-0.20;99.90
18876;DHT22;9570;50.854;13.778;2023-02-15T03:12:57;-0.20;99.90
18876;DHT22;9570;50.854;13.778;2023-02-15T03:15:26;-0.20;99.90
18876;DHT22;9570;50.854;13.778;2023-02-15T03:18:12;-0.20;99.90
18876;DHT22;9570;50.854;13.778;2023-02-15T03:20:38;-0.20;99.90
18876;DHT22;9570;50.854;13.778;2023-02-15T03:23:07;-0.20;99.90
18876;DHT22;9570;50.854;13.778;2023-02-15T03:25:40;-0.20;99.90
18876;DHT22;9570;50.854;13.778;2023-02-15T03:28:09;-0.30;99.90
18876;DHT22;9570;50.854;13.778;2023-02-15T03:30:38;-0.30;99.90
18876;DHT22;9570;50.854;13.778;2023-02-15T03:33:05;-0.30;99.90
18876;DHT22;9570;50.854;13.778;2023-02-15T03:35:39;-0.30;99.90
18876;DHT22;9570;50.854;13.778;2023-02-15T03:38:07;-0.30;99.90
18876;DHT22;9570;50.854;13.778;2023-02-15T03:40:40;-0.30;99.90
18876;DHT22;9570;50.854;13.778;2023-02-15T03:43:39;-0.30;99.90
18876;DHT22;9570;50.854;13.778;2023-02-15T03:46:13;-0.30;99.90
18876;DHT22;9570;50.854;13.778;2023-02-15T03:48:45;-0.30;99.90
18876;DHT22;9570;50.854;13.778;2023-02-15T03:51:16;-0.30;99.90
18876;DHT22;9570;50.854;13.778;2023-02-15T03:54:30;-0.30;99.90
18876;DHT22;9570;50.854;13.778;2023-02-15T03:57:21;-0.30;99.90
18876;DHT22;9570;50.854;13.778;2023-02-15T04:03:16;-0.30;99.90
18876;DHT22;9570;50.854;13.778;2023-02-15T04:05:45;-0.30;99.90
18876;DHT22;9570;50.854;13.778;2023-02-15T04:08:12;-0.30;99.90
18876;DHT22;9570;50.854;13.778;2023-02-15T04:10:37;-0.30;99.90
18876;DHT22;9570;50.854;13.778;2023-02-15T04:13:31;-0.30;99.90
18876;DHT22;9570;50.854;13.778;2023-02-15T04:15:57;-0.30;99.90
18876;DHT22;9570;50.854;13.778;2023-02-15T04:18:30;-0.40;99.90
18876;DHT22;9570;50.854;13.778;2023-02-15T04:21:15;-0.40;99.90
18876;DHT22;9570;50.854;13.778;2023-02-15T04:23:59;-0.40;99.90
18876;DHT22;9570;50.854;13.778;2023-02-15T04:26:43;-0.40;99.90
18876;DHT22;9570;50.854;13.778;2023-02-15T04:29:08;-0.40;99.90
18876;DHT22;9570;50.854;13.778;2023-02-15T04:31:34;-0.40;99.90
18876;DHT22;9570;50.854;13.778;2023-02-15T04:33:59;-0.40;99.90
18876;DHT22;9570;50.854;13.778;2023-02-15T04:36:25;-0.50;99.90
18876;DHT22;9570;50.854;13.778;2023-02-15T04:38:51;-0.50;99.90
18876;DHT22;9570;50.854;13.778;2023-02-15T04:41:16;-0.50;99.90
18876;DHT22;9570;50.854;13.778;2023-02-15T04:43:42;-0.50;99.90
18876;DHT22;9570;50.854;13.778;2023-02-15T04:46:07;-0.50;99.90
18876;DHT22;9570;50.854;13.778;2023-02-15T04:48:32;-0.50;99.90
18876;DHT22;9570;50.854;13.778;2023-02-15T04:50:58;-0.50;99.90
18876;DHT22;9570;50.854;13.778;2023-02-15T04:53:23;-0.50;99.90
18876;DHT22;9570;50.854;13.778;2023-02-15T04:55:49;-0.60;99.90
18876;DHT22;9570;50.854;13.778;2023-02-15T04:58:14;-0.60;99.90
18876;DHT22;9570;50.854;13.778;2023-02-15T05:00:40;-0.60;99.90
18876;DHT22;9570;50.854;13.778;2023-02-15T05:03:05;-0.60;99.90
18876;DHT22;9570;50.854;13.778;2023-02-15T05:05:31;-0.60;99.90
18876;DHT22;9570;50.854;13.778;2023-02-15T05:07:56;-0.60;99.90
18876;DHT22;9570;50.854;13.778;2023-02-15T05:10:22;-0.60;99.90
18876;DHT22;9570;50.854;13.778;2023-02-15T05:12:47;-0.60;99.90
18876;DHT22;9570;50.854;13.778;2023-02-15T05:15:13;-0.60;99.90
18876;DHT22;9570;50.854;13.778;2023-02-15T05:17:38;-0.60;99.90
18876;DHT22;9570;50.854;13.778;2023-02-15T05:20:05;-0.60;99.90
18876;DHT22;9570;50.854;13.778;2023-02-15T05:22:31;-0.60;99.90
18876;DHT22;9570;50.854;13.778;2023-02-15T05:24:56;-0.60;99.90
18876;DHT22;9570;50.854;13.778;2023-02-15T05:27:41;-0.70;99.90
18876;DHT22;9570;50.854;13.778;2023-02-15T05:30:25;-0.70;99.90
18876;DHT22;9570;50.854;13.778;2023-02-15T05:32:50;-0.70;99.90
18876;DHT22;9570;50.854;13.778;2023-02-15T05:35:16;-0.70;99.90
18876;DHT22;9570;50.854;13.778;2023-02-15T05:37:42;-0.70;99.90
18876;DHT22;9570;50.854;13.778;2023-02-15T05:40:08;-0.70;99.90
18876;DHT22;9570;50.854;13.778;2023-02-15T05:42:33;-0.70;99.90
18876;DHT22;9570;50.854;13.778;2023-02-15T05:44:59;-0.70;99.90
18876;DHT22;9570;50.854;13.778;2023-02-15T05:47:24;-0.70;99.90
18876;DHT22;9570;50.854;13.778;2023-02-15T05:49:50;-0.80;99.90
18876;DHT22;9570;50.854;13.778;2023-02-15T05:52:15;-0.80;99.90
18876;DHT22;9570;50.854;13.778;2023-02-15T05:54:41;-0.70;99.90
18876;DHT22;9570;50.854;13.778;2023-02-15T05:57:06;-0.70;99.90
18876;DHT22;9570;50.854;13.778;2023-02-15T05:59:32;-0.80;99.90
18876;DHT22;9570;50.854;13.778;2023-02-15T06:01:57;-0.70;99.90
18876;DHT22;9570;50.854;13.778;2023-02-15T06:04:23;-0.70;99.90
18876;DHT22;9570;50.854;13.778;2023-02-15T06:06:48;-0.70;99.90
18876;DHT22;9570;50.854;13.778;2023-02-15T06:09:14;-0.70;99.90
18876;DHT22;9570;50.854;13.778;2023-02-15T06:11:39;-0.80;99.90
18876;DHT22;9570;50.854;13.778;2023-02-15T06:14:05;-0.80;99.90
18876;DHT22;9570;50.854;13.778;2023-02-15T06:16:30;-0.80;99.90
18876;DHT22;9570;50.854;13.778;2023-02-15T06:18:56;-0.80;99.90
18876;DHT22;9570;50.854;13.778;2023-02-15T06:21:22;-0.80;99.90
18876;DHT22;9570;50.854;13.778;2023-02-15T06:23:47;-0.80;99.90
18876;DHT22;9570;50.854;13.778;2023-02-15T06:26:13;-0.80;99.90
18876;DHT22;9570;50.854;13.778;2023-02-15T06:28:38;-0.80;99.90
18876;DHT22;9570;50.854;13.778;2023-02-15T06:31:04;-0.80;99.90
18876;DHT22;9570;50.854;13.778;2023-02-15T06:33:30;-0.80;99.90
18876;DHT22;9570;50.854;13.778;2023-02-15T06:35:58;-0.80;99.90
18876;DHT22;9570;50.854;13.778;2023-02-15T06:38:23;-0.80;99.90
18876;DHT22;9570;50.854;13.778;2023-02-15T06:40:48;-0.70;99.90
18876;DHT22;9570;50.854;13.778;2023-02-15T06:43:14;-0.70;99.90
18876;DHT22;9570;50.854;13.778;2023-02-15T06:45:41;-0.70;99.90
18876;DHT22;9570;50.854;13.778;2023-02-15T06:48:06;-0.70;99.90
18876;DHT22;9570;50.854;13.778;2023-02-15T06:50:33;-0.70;99.90
18876;DHT22;9570;50.854;13.778;2023-02-15T06:52:59;-0.70;99.90
18876;DHT22;9570;50.854;13.778;2023-02-15T06:55:25;-0.60;99.90
18876;DHT22;9570;50.854;13.778;2023-02-15T06:57:51;-0.60;99.90
18876;DHT22;9570;50.854;13.778;2023-02-15T07:00:16;-0.60;99.90
18876;DHT22;9570;50.854;13.778;2023-02-15T07:02:43;-0.60;99.90
18876;DHT22;9570;50.854;13.778;2023-02-15T07:05:08;-0.60;99.90
18876;DHT22;9570;50.854;13.778;2023-02-15T07:07:34;-0.50;99.90
18876;DHT22;9570;50.854;13.778;2023-02-15T07:09:59;-0.50;99.90
18876;DHT22;9570;50.854;13.778;2023-02-15T07:12:25;-0.50;99.90
18876;DHT22;9570;50.854;13.778;2023-02-15T07:15:15;-0.40;99.90
18876;DHT22;9570;50.854;13.778;2023-02-15T07:17:41;-0.40;99.90
18876;DHT22;9570;50.854;13.778;2023-02-15T07:20:12;-0.30;99.90
18876;DHT22;9570;50.854;13.778;2023-02-15T07:22:38;-0.20;99.90
18876;DHT22;9570;50.854;13.778;2023-02-15T07:25:06;-0.20;99.90
18876;DHT22;9570;50.854;13.778;2023-02-15T07:27:32;-0.10;99.90
18876;DHT22;9570;50.854;13.778;2023-02-15T07:29:58;-0.10;99.90
18876;DHT22;9570;50.854;13.778;2023-02-15T07:32:23;0.00;99.90
18876;DHT22;9570;50.854;13.778;2023-02-15T07:34:49;0.00;99.90
18876;DHT22;9570;50.854;13.778;2023-02-15T07:37:14;0.10;99.90
18876;DHT22;9570;50.854;13.778;2023-02-15T07:39:40;0.20;99.90
18876;DHT22;9570;50.854;13.778;2023-02-15T07:42:05;0.30;99.90
18876;DHT22;9570;50.854;13.778;2023-02-15T07:44:30;0.40;99.90
18876;DHT22;9570;50.854;13.778;2023-02-15T07:46:56;0.60;99.90
18876;DHT22;9570;50.854;13.778;2023-02-15T07:49:21;1.00;99.90
18876;DHT22;9570;50.854;13.778;2023-02-15T07:51:47;1.70;99.90
18876;DHT22;9570;50.854;13.778;2023-02-15T07:54:12;2.30;99.90
18876;DHT22;9570;50.854;13.778;2023-02-15T07:56:38;2.90;99.90
18876;DHT22;9570;50.854;13.778;2023-02-15T07:59:03;3.60;99.90
18876;DHT22;9570;50.854;13.778;2023-02-15T08:01:35;4.20;99.90
18876;DHT22;9570;50.854;13.778;2023-02-15T08:04:02;4.70;99.90
18876;DHT22;9570;50.854;13.778;2023-02-15T08:06:31;5.40;99.90
18876;DHT22;9570;50.854;13.778;2023-02-15T08:08:57;6.20;99.90
18876;DHT22;9570;50.854;13.778;2023-02-15T08:11:25;6.90;99.90
18876;DHT22;9570;50.854;13.778;2023-02-15T08:14:11;7.60;99.90
18876;DHT22;9570;50.854;13.778;2023-02-15T08:16:48;8.50;99.90
18876;DHT22;9570;50.854;13.778;2023-02-15T08:19:19;8.90;99.90
18876;DHT22;9570;50.854;13.778;2023-02-15T08:21:47;9.20;99.90
18876;DHT22;9570;50.854;13.778;2023-02-15T08:24:14;9.40;99.90
18876;DHT22;9570;50.854;13.778;2023-02-15T08:26:40;9.50;99.90
18876;DHT22;9570;50.854;13.778;2023-02-15T08:29:07;9.40;99.90
18876;DHT22;9570;50.854;13.778;2023-02-15T08:31:34;9.40;99.90
18876;DHT22;9570;50.854;13.778;2023-02-15T08:34:00;9.50;99.90
18876;DHT22;9570;50.854;13.778;2023-02-15T08:36:28;9.70;99.90
18876;DHT22;9570;50.854;13.778;2023-02-15T08:38:57;9.70;99.90
18876;DHT22;9570;50.854;13.778;2023-02-15T08:41:27;10.00;99.90
18876;DHT22;9570;50.854;13.778;2023-02-15T08:43:56;10.10;99.90
18876;DHT22;9570;50.854;13.778;2023-02-15T08:46:24;10.20;99.90
18876;DHT22;9570;50.854;13.778;2023-02-15T08:48:50;10.40;99.90
18876;DHT22;9570;50.854;13.778;2023-02-15T08:51:18;10.60;99.90
18876;DHT22;9570;50.854;13.778;2023-02-15T08:53:46;10.80;99.90
18876;DHT22;9570;50.854;13.778;2023-02-15T08:56:14;11.00;99.90
18876;DHT22;9570;50.854;13.778;2023-02-15T08:58:40;11.10;99.90
18876;DHT22;9570;50.854;13.778;2023-02-15T09:01:14;11.30;99.90
18876;DHT22;9570;50.854;13.778;2023-02-15T09:03:43;11.70;99.90
18876;DHT22;9570;50.854;13.778;2023-02-15T09:06:09;11.90;99.90
18876;DHT22;9570;50.854;13.778;2023-02-15T09:08:34;12.10;99.90
18876;DHT22;9570;50.854;13.778;2023-02-15T09:13:37;12.60;99.90
18876;DHT22;9570;50.854;13.778;2023-02-15T09:16:05;12.80;99.90
18876;DHT22;9570;50.854;13.778;2023-02-15T09:18:34;12.90;99.90
18876;DHT22;9570;50.854;13.778;2023-02-15T09:21:11;12.90;99.90
18876;DHT22;9570;50.854;13.778;2023-02-15T09:23:39;13.10;99.90
18876;DHT22;9570;50.854;13.778;2023-02-15T09:26:08;13.00;99.90
18876;DHT22;9570;50.854;13.778;2023-02-15T09:28:33;13.00;99.90
18876;DHT22;9570;50.854;13.778;2023-02-15T09:31:13;12.60;99.90
18876;DHT22;9570;50.854;13.778;2023-02-15T09:33:41;12.30;99.90
18876;DHT22;9570;50.854;13.778;2023-02-15T09:36:15;12.50;99.90
18876;DHT22;9570;50.854;13.778;2023-02-15T09:38:41;12.70;99.90
18876;DHT22;9570;50.854;13.778;2023-02-15T09:41:15;12.80;99.90
18876;DHT22;9570;50.854;13.778;2023-02-15T09:43:57;12.90;99.90
18876;DHT22;9570;50.854;13.778;2023-02-15T09:46:56;12.40;99.90
18876;DHT22;9570;50.854;13.778;2023-02-15T09:49:33;12.20;99.90
18876;DHT22;9570;50.854;13.778;2023-02-15T09:52:30;12.30;99.90
18876;DHT22;9570;50.854;13.778;2023-02-15T10:06:16;13.90;99.90
18876;DHT22;9570;50.854;13.778;2023-02-15T10:11:44;14.30;99.90
18876;DHT22;9570;50.854;13.778;2023-02-15T10:17:38;14.40;99.90
18876;DHT22;9570;50.854;13.778;2023-02-15T10:23:13;14.60;99.90
18876;DHT22;9570;50.854;13.778;2023-02-15T10:25:53;14.70;99.90
18876;DHT22;9570;50.854;13.778;2023-02-15T10:31:26;14.60;99.90
18876;DHT22;9570;50.854;13.778;2023-02-15T10:34:09;14.80;99.90
18876;DHT22;9570;50.854;13.778;2023-02-15T10:39:26;14.80;99.90
18876;DHT22;9570;50.854;13.778;2023-02-15T10:42:09;14.90;99.90
18876;DHT22;9570;50.854;13.778;2023-02-15T10:44:58;15.00;99.90
18876;DHT22;9570;50.854;13.778;2023-02-15T10:47:37;15.20;99.90
18876;DHT22;9570;50.854;13.778;2023-02-15T10:50:26;15.10;99.90
18876;DHT22;9570;50.854;13.778;2023-02-15T10:55:52;15.40;99.90
18876;DHT22;9570;50.854;13.778;2023-02-15T11:01:25;15.20;99.90
18876;DHT22;9570;50.854;13.778;2023-02-15T11:04:05;15.10;99.90
18876;DHT22;9570;50.854;13.778;2023-02-15T11:06:37;15.10;99.90
18876;DHT22;9570;50.854;13.778;2023-02-15T11:09:10;15.00;99.90
18876;DHT22;9570;50.854;13.778;2023-02-15T11:11:37;14.80;99.90
18876;DHT22;9570;50.854;13.778;2023-02-15T11:17:01;14.80;99.90
18876;DHT22;9570;50.854;13.778;2023-02-15T11:19:35;15.00;99.90
18876;DHT22;9570;50.854;13.778;2023-02-15T11:22:04;14.80;99.90
18876;DHT22;9570;50.854;13.778;2023-02-15T11:24:32;14.90;99.90
18876;DHT22;9570;50.854;13.778;2023-02-15T11:27:02;14.90;99.90
18876;DHT22;9570;50.854;13.778;2023-02-15T11:29:55;14.80;99.90
18876;DHT22;9570;50.854;13.778;2023-02-15T11:32:31;14.90;99.90
18876;DHT22;9570;50.854;13.778;2023-02-15T11:37:48;15.00;99.90
18876;DHT22;9570;50.854;13.778;2023-02-15T11:42:55;15.10;99.90
18876;DHT22;9570;50.854;13.778;2023-02-15T11:45:32;14.80;99.90
18876;DHT22;9570;50.854;13.778;2023-02-15T11:48:00;14.50;99.90
18876;DHT22;9570;50.854;13.778;2023-02-15T11:50:28;14.50;99.90
18876;DHT22;9570;50.854;13.778;2023-02-15T11:52:59;14.60;99.90
18876;DHT22;9570;50.854;13.778;2023-02-15T11:55:27;14.60;99.90
18876;DHT22;9570;50.854;13.778;2023-02-15T11:57:59;14.60;99.90
18876;DHT22;9570;50.854;13.778;2023-02-15T12:00:36;14.60;99.90
18876;DHT22;9570;50.854;13.778;2023-02-15T12:03:16;14.70;99.90
18876;DHT22;9570;50.854;13.778;2023-02-15T12:05:45;14.70;99.90
18876;DHT22;9570;50.854;13.778;2023-02-15T12:08:18;14.80;99.90
18876;DHT22;9570;50.854;13.778;2023-02-15T12:10:53;14.70;99.90
18876;DHT22;9570;50.854;13.778;2023-02-15T12:13:21;14.70;99.90
18876;DHT22;9570;50.854;13.778;2023-02-15T12:15:52;14.70;99.90
18876;DHT22;9570;50.854;13.778;2023-02-15T12:18:40;14.70;99.90
18876;DHT22;9570;50.854;13.778;2023-02-15T12:21:12;14.70;99.90
18876;DHT22;9570;50.854;13.778;2023-02-15T12:23:48;14.60;99.90
18876;DHT22;9570;50.854;13.778;2023-02-15T12:26:14;14.80;99.90
18876;DHT22;9570;50.854;13.778;2023-02-15T12:28:44;14.90;99.90
18876;DHT22;9570;50.854;13.778;2023-02-15T12:31:33;14.80;99.90
18876;DHT22;9570;50.854;13.778;2023-02-15T12:34:03;14.70;99.90
18876;DHT22;9570;50.854;13.778;2023-02-15T12:36:42;14.70;99.90
18876;DHT22;9570;50.854;13.778;2023-02-15T12:41:41;14.50;99.90
18876;DHT22;9570;50.854;13.778;2023-02-15T12:44:22;14.60;99.90
18876;DHT22;9570;50.854;13.778;2023-02-15T12:49:36;14.60;99.90
18876;DHT22;9570;50.854;13.778;2023-02-15T12:52:04;14.60;99.90
18876;DHT22;9570;50.854;13.778;2023-02-15T12:54:38;14.50;99.90
18876;DHT22;9570;50.854;13.778;2023-02-15T12:57:21;14.50;99.90
18876;DHT22;9570;50.854;13.778;2023-02-15T12:59:48;14.30;99.90
18876;DHT22;9570;50.854;13.778;2023-02-15T13:02:41;14.30;99.90
18876;DHT22;9570;50.854;13.778;2023-02-15T13:05:31;14.20;99.90
18876;DHT22;9570;50.854;13.778;2023-02-15T13:08:18;14.20;99.90
18876;DHT22;9570;50.854;13.778;2023-02-15T13:13:30;14.50;99.90
18876;DHT22;9570;50.854;13.778;2023-02-15T13:15:59;14.50;99.90
18876;DHT22;9570;50.854;13.778;2023-02-15T13:18:45;14.40;99.90
18876;DHT22;9570;50.854;13.778;2023-02-15T13:21:18;14.30;99.90
18876;DHT22;9570;50.854;13.778;2023-02-15T13:23:48;14.30;99.90
18876;DHT22;9570;50.854;13.778;2023-02-15T13:26:19;14.20;99.90
18876;DHT22;9570;50.854;13.778;2023-02-15T13:28:48;14.10;99.90
18876;DHT22;9570;50.854;13.778;2023-02-15T13:31:18;13.90;99.90
18876;DHT22;9570;50.854;13.778;2023-02-15T13:34:10;13.80;99.90
18876;DHT22;9570;50.854;13.778;2023-02-15T13:39:11;13.50;99.90
18876;DHT22;9570;50.854;13.778;2023-02-15T13:41:54;13.60;99.90
18876;DHT22;9570;50.854;13.778;2023-02-15T13:47:21;13.40;99.90
18876;DHT22;9570;50.854;13.778;2023-02-15T13:53:34;12.70;99.90
18876;DHT22;9570;50.854;13.778;2023-02-15T13:58:51;12.30;99.90
18876;DHT22;9570;50.854;13.778;2023-02-15T14:01:44;12.20;99.90
18876;DHT22;9570;50.854;13.778;2023-02-15T14:04:23;12.10;99.90
18876;DHT22;9570;50.854;13.778;2023-02-15T14:07:09;12.00;99.90
18876;DHT22;9570;50.854;13.778;2023-02-15T14:09:47;12.00;99.90
18876;DHT22;9570;50.854;13.778;2023-02-15T14:12:26;12.00;99.90
18876;DHT22;9570;50.854;13.778;2023-02-15T14:15:18;12.10;99.90
18876;DHT22;9570;50.854;13.778;2023-02-15T14:17:55;12.00;99.90
18876;DHT22;9570;50.854;13.778;2023-02-15T14:20:39;12.00;99.90
18876;DHT22;9570;50.854;13.778;2023-02-15T14:23:35;11.80;99.90
18876;DHT22;9570;50.854;13.778;2023-02-15T14:29:14;11.70;99.90
18876;DHT22;9570;50.854;13.778;2023-02-15T14:31:43;11.90;99.90
18876;DHT22;9570;50.854;13.778;2023-02-15T14:34:43;12.00;99.90
18876;DHT22;9570;50.854;13.778;2023-02-15T14:37:11;12.00;99.90
18876;DHT22;9570;50.854;13.778;2023-02-15T14:39:57;12.00;99.90
18876;DHT22;9570;50.854;13.778;2023-02-15T14:42:56;12.10;99.90
18876;DHT22;9570;50.854;13.778;2023-02-15T14:45:23;12.20;99.90
18876;DHT22;9570;50.854;13.778;2023-02-15T14:48:25;12.20;99.90
18876;DHT22;9570;50.854;13.778;2023-02-15T14:50:52;12.20;99.90
18876;DHT22;9570;50.854;13.778;2023-02-15T14:53:34;12.10;99.90
18876;DHT22;9570;50.854;13.778;2023-02-15T15:01:28;11.90;99.90
18876;DHT22;9570;50.854;13.778;2023-02-15T15:03:58;11.80;99.90
18876;DHT22;9570;50.854;13.778;2023-02-15T15:06:27;11.70;99.90
18876;DHT22;9570;50.854;13.778;2023-02-15T15:09:00;11.60;99.90
18876;DHT22;9570;50.854;13.778;2023-02-15T15:13:55;11.40;99.90
18876;DHT22;9570;50.854;13.778;2023-02-15T15:19:02;11.20;99.90
18876;DHT22;9570;50.854;13.778;2023-02-15T15:35:52;10.40;99.90
18876;DHT22;9570;50.854;13.778;2023-02-15T15:38:35;10.30;99.90
18876;DHT22;9570;50.854;13.778;2023-02-15T15:41:27;10.20;99.90
18876;DHT22;9570;50.854;13.778;2023-02-15T15:49:33;9.70;99.90
18876;DHT22;9570;50.854;13.778;2023-02-15T15:52:02;9.60;99.90
18876;DHT22;9570;50.854;13.778;2023-02-15T15:54:29;9.40;99.90
18876;DHT22;9570;50.854;13.778;2023-02-15T15:56:58;9.20;99.90
18876;DHT22;9570;50.854;13.778;2023-02-15T15:59:29;9.10;99.90
18876;DHT22;9570;50.854;13.778;2023-02-15T16:01:55;9.00;99.90
18876;DHT22;9570;50.854;13.778;2023-02-15T16:04:28;8.90;99.90
18876;DHT22;9570;50.854;13.778;2023-02-15T16:06:55;8.70;99.90
18876;DHT22;9570;50.854;13.778;2023-02-15T16:09:26;8.60;99.90
18876;DHT22;9570;50.854;13.778;2023-02-15T16:11:55;8.50;99.90
18876;DHT22;9570;50.854;13.778;2023-02-15T16:14:30;8.40;99.90
18876;DHT22;9570;50.854;13.778;2023-02-15T16:16:59;8.20;99.90
18876;DHT22;9570;50.854;13.778;2023-02-15T16:19:38;8.10;99.90
18876;DHT22;9570;50.854;13.778;2023-02-15T16:22:09;8.00;99.90
18876;DHT22;9570;50.854;13.778;2023-02-15T16:27:45;7.70;99.90
18876;DHT22;9570;50.854;13.778;2023-02-15T16:30:32;7.50;99.90
18876;DHT22;9570;50.854;13.778;2023-02-15T16:33:10;7.40;99.90
18876;DHT22;9570;50.854;13.778;2023-02-15T16:35:40;7.30;99.90
18876;DHT22;9570;50.854;13.778;2023-02-15T16:38:09;7.10;99.90
18876;DHT22;9570;50.854;13.778;2023-02-15T16:40:41;7.10;99.90
18876;DHT22;9570;50.854;13.778;2023-02-15T16:43:15;7.00;99.90
18876;DHT22;9570;50.854;13.778;2023-02-15T16:45:42;6.80;99.90
18876;DHT22;9570;50.854;13.778;2023-02-15T16:48:21;6.80;99.90
18876;DHT22;9570;50.854;13.778;2023-02-15T16:50:51;6.70;99.90
18876;DHT22;9570;50.854;13.778;2023-02-15T16:53:21;6.60;99.90
18876;DHT22;9570;50.854;13.778;2023-02-15T16:55:51;6.50;99.90
18876;DHT22;9570;50.854;13.778;2023-02-15T16:58:23;6.50;99.90
18876;DHT22;9570;50.854;13.778;2023-02-15T17:00:51;6.30;99.90
18876;DHT22;9570;50.854;13.778;2023-02-15T17:03:23;6.30;99.90
18876;DHT22;9570;50.854;13.778;2023-02-15T17:05:52;6.20;99.90
18876;DHT22;9570;50.854;13.778;2023-02-15T17:08:19;6.10;99.90
18876;DHT22;9570;50.854;13.778;2023-02-15T17:11:01;5.90;99.90
18876;DHT22;9570;50.854;13.778;2023-02-15T17:13:28;5.90;99.90
18876;DHT22;9570;50.854;13.778;2023-02-15T17:18:45;5.70;99.90
18876;DHT22;9570;50.854;13.778;2023-02-15T17:21:17;5.50;99.90
18876;DHT22;9570;50.854;13.778;2023-02-15T17:23:46;5.50;99.90
18876;DHT22;9570;50.854;13.778;2023-02-15T17:26:19;5.40;99.90
18876;DHT22;9570;50.854;13.778;2023-02-15T17:28:47;5.40;99.90
18876;DHT22;9570;50.854;13.778;2023-02-15T17:31:16;5.30;99.90
18876;DHT22;9570;50.854;13.778;2023-02-15T17:33:42;5.30;99.90
18876;DHT22;9570;50.854;13.778;2023-02-15T17:38:38;5.10;99.90
18876;DHT22;9570;50.854;13.778;2023-02-15T17:41:04;5.10;99.90
18876;DHT22;9570;50.854;13.778;2023-02-15T17:43:29;5.00;99.90
18876;DHT22;9570;50.854;13.778;2023-02-15T17:45:56;5.00;99.90
18876;DHT22;9570;50.854;13.778;2023-02-15T17:48:34;4.80;99.90
18876;DHT22;9570;50.854;13.778;2023-02-15T17:51:02;4.80;99.90
18876;DHT22;9570;50.854;13.778;2023-02-15T17:53:28;4.50;99.90
18876;DHT22;9570;50.854;13.778;2023-02-15T17:55:53;4.50;99.90
18876;DHT22;9570;50.854;13.778;2023-02-15T17:58:19;4.50;99.90